createdAt,value
2018-11-22T12:17:11.124Z,21.45
2018-11-22T12:19:39.488Z,23.42
2018-11-22T12:22:07.885Z,20.95
2018-11-22T12:24:36.215Z,23.80
2018-11-22T12:27:04.503Z,24.72
2018-11-22T12:29:32.785Z,26.07
2018-11-22T12:32:06.292Z,24.65
2018-11-22T12:34:40.089Z,20.65
2018-11-22T12:37:47.023Z,20.57
2018-11-22T12:40:15.701Z,22.00
2018-11-22T12:42:44.205Z,22.95
2018-11-22T12:45:12.963Z,22.98
2018-11-22T12:47:41.529Z,22.27
2018-11-22T12:50:10.098Z,25.57
2018-11-22T12:52:38.424Z,23.30
2018-11-22T12:55:08.269Z,24.20
2018-11-22T12:57:36.611Z,22.87
2018-11-22T13:00:05.761Z,23.45
2018-11-22T13:02:34.107Z,26.30
2018-11-22T13:05:02.491Z,26.52
2018-11-22T13:07:30.789Z,29.98
2018-11-22T13:09:59.134Z,23.27
2018-11-22T13:12:27.613Z,22.75
2018-11-22T13:14:57.497Z,22.90
2018-11-22T13:17:26.284Z,22.87
2018-11-22T13:19:55.028Z,25.48
2018-11-22T13:22:25.385Z,27.25
2018-11-22T13:24:54.154Z,23.90
2018-11-22T13:27:25.236Z,24.40
2018-11-22T13:29:54.071Z,26.97
2018-11-22T13:32:23.520Z,23.02
2018-11-22T13:34:52.385Z,25.72
2018-11-22T13:37:21.692Z,28.12
2018-11-22T13:39:54.462Z,35.85
2018-11-22T13:42:22.875Z,25.72
2018-11-22T13:44:52.359Z,26.62
2018-11-22T13:47:20.966Z,24.77
2018-11-22T13:49:49.290Z,22.10
2018-11-22T13:52:17.658Z,24.43
2018-11-22T13:54:46.102Z,25.85
2018-11-22T13:57:14.468Z,30.45
2018-11-22T13:59:42.858Z,24.57
2018-11-22T14:02:11.128Z,26.85
2018-11-22T14:04:39.506Z,29.70
2018-11-22T14:07:07.861Z,24.90
2018-11-22T14:09:36.156Z,21.75
2018-11-22T14:12:04.663Z,24.10
2018-11-22T14:14:33.302Z,21.05
2018-11-22T14:17:02.010Z,25.65
2018-11-22T14:19:30.853Z,24.30
2018-11-22T14:22:06.019Z,24.98
2018-11-22T14:24:34.573Z,24.23
2018-11-22T14:27:03.425Z,21.35
2018-11-22T14:29:31.875Z,19.95
2018-11-22T14:32:00.418Z,24.30
2018-11-22T14:34:29.232Z,22.90
2018-11-22T14:36:57.657Z,24.43
2018-11-22T14:39:25.933Z,24.20
2018-11-22T14:41:54.185Z,23.18
2018-11-22T14:44:22.460Z,23.12
2018-11-22T14:46:50.752Z,21.77
2018-11-22T14:49:19.008Z,25.43
2018-11-22T14:51:49.066Z,24.27
2018-11-22T14:54:17.324Z,24.47
2018-11-22T14:56:45.588Z,24.32
2018-11-22T14:59:13.825Z,23.02
2018-11-22T15:01:42.064Z,24.45
2018-11-22T15:04:10.339Z,21.50
2018-11-22T15:06:38.666Z,22.37
2018-11-22T15:09:08.549Z,23.12
2018-11-22T15:11:36.854Z,20.80
2018-11-22T15:14:06.228Z,23.40
2018-11-22T15:16:34.693Z,21.75
2018-11-22T15:19:03.015Z,22.60
2018-11-22T15:21:31.455Z,23.18
2018-11-22T15:23:59.767Z,21.52
2018-11-22T15:26:28.056Z,27.80
2018-11-22T15:28:56.304Z,21.27
2018-11-22T15:31:24.580Z,23.47
2018-11-22T15:33:52.812Z,26.33
2018-11-22T15:36:21.045Z,25.27
2018-11-22T15:38:49.343Z,21.57
2018-11-22T15:41:17.627Z,24.72
2018-11-22T15:43:45.974Z,24.60
2018-11-22T15:46:14.466Z,24.02
2018-11-22T15:48:42.828Z,23.32
2018-11-22T15:51:11.192Z,23.15
2018-11-22T15:53:39.452Z,28.35
2018-11-22T15:56:07.930Z,25.00
2018-11-22T15:58:36.162Z,24.92
2018-11-22T16:01:04.441Z,23.45
2018-11-22T16:03:32.752Z,26.00
2018-11-22T16:06:01.014Z,22.25
2018-11-22T16:08:29.333Z,23.80
2018-11-22T16:10:57.589Z,21.80
2018-11-22T16:13:25.840Z,28.47
2018-11-22T16:15:54.856Z,23.27
2018-11-22T16:18:23.204Z,26.15
2018-11-22T16:20:51.540Z,23.00
2018-11-22T16:23:19.983Z,23.15
2018-11-22T16:25:48.333Z,22.87
2018-11-22T16:28:16.633Z,25.40
2018-11-22T16:30:44.881Z,20.80
2018-11-22T16:33:13.142Z,27.70
2018-11-22T16:35:41.424Z,24.60
2018-11-22T16:38:09.684Z,22.98
2018-11-22T16:40:38.026Z,25.23
2018-11-22T16:43:06.604Z,26.25
2018-11-22T16:45:36.025Z,21.27
2018-11-22T16:48:06.840Z,21.75
2018-11-22T16:50:36.065Z,24.90
2018-11-22T16:56:15.907Z,24.65
2018-11-22T16:58:49.617Z,24.67
2018-11-22T17:01:20.516Z,24.77
2018-11-22T17:03:49.172Z,31.30
2018-11-22T17:08:54.671Z,20.37
2018-11-22T17:11:23.028Z,30.27
2018-11-22T17:13:51.460Z,22.70
2018-11-22T17:16:30.435Z,23.45
2018-11-22T17:18:59.481Z,22.98
2018-11-22T17:21:32.973Z,25.88
2018-11-22T17:24:01.892Z,25.75
2018-11-22T17:26:30.507Z,21.23
2018-11-22T17:29:02.710Z,26.48
2018-11-22T17:31:33.381Z,26.23
2018-11-22T17:34:05.258Z,22.73
2018-11-22T17:36:34.013Z,23.10
2018-11-22T17:39:07.633Z,23.67
2018-11-22T17:41:36.655Z,26.87
2018-11-22T17:44:06.494Z,22.40
2018-11-22T17:46:35.275Z,20.95
2018-11-22T17:49:05.337Z,22.35
2018-11-22T17:51:34.585Z,23.35
2018-11-22T17:54:03.998Z,23.70
2018-11-22T17:56:39.065Z,21.48
2018-11-22T17:59:08.148Z,23.02
2018-11-22T18:01:37.668Z,19.82
2018-11-22T18:04:08.102Z,23.83
2018-11-22T18:06:38.562Z,23.00
2018-11-22T18:09:10.320Z,26.02
2018-11-22T18:11:39.460Z,26.12
2018-11-22T18:14:10.693Z,24.72
2018-11-22T18:16:40.826Z,28.23
2018-11-22T18:19:09.478Z,23.27
2018-11-22T18:21:39.597Z,22.87
2018-11-22T18:24:10.597Z,23.35
2018-11-22T18:26:41.149Z,24.18
2018-11-22T18:29:11.917Z,25.90
2018-11-22T18:31:43.109Z,24.65
2018-11-22T18:34:13.234Z,24.30
2018-11-22T18:36:43.376Z,26.68
2018-11-22T18:39:14.260Z,24.92
2018-11-22T18:41:45.433Z,67.90
2018-11-22T18:44:14.796Z,107.67
2018-11-22T18:46:44.242Z,67.12
2018-11-22T18:49:15.821Z,29.10
2018-11-22T18:51:45.725Z,30.23
2018-11-22T18:54:16.226Z,29.23
2018-11-22T18:56:45.097Z,25.70
2018-11-22T18:59:15.672Z,24.52
2018-11-22T19:01:45.149Z,24.70
2018-11-22T19:04:16.800Z,24.50
2018-11-22T19:06:46.670Z,28.50
2018-11-22T19:09:16.827Z,24.18
2018-11-22T19:11:48.558Z,23.00
2018-11-22T19:14:17.503Z,24.18
2018-11-22T19:16:49.132Z,30.23
2018-11-22T19:19:19.524Z,30.43
2018-11-22T19:21:50.315Z,23.05
2018-11-22T19:24:22.556Z,25.37
2018-11-22T19:26:51.935Z,25.57
2018-11-22T19:29:21.694Z,25.43
2018-11-22T19:31:51.557Z,24.45
2018-11-22T19:34:21.851Z,21.90
2018-11-22T19:36:55.748Z,23.90
2018-11-22T19:39:24.940Z,26.57
2018-11-22T19:41:54.031Z,26.52
2018-11-22T19:44:23.734Z,23.55
2018-11-22T19:46:54.596Z,21.10
2018-11-22T19:49:25.050Z,26.87
2018-11-22T19:51:53.842Z,27.25
2018-11-22T19:54:24.801Z,22.85
2018-11-22T19:56:56.587Z,25.97
2018-11-22T19:59:26.297Z,25.68
2018-11-22T20:01:56.735Z,24.37
2018-11-22T20:04:26.986Z,23.77
2018-11-22T20:07:04.325Z,25.75
2018-11-22T20:09:35.458Z,24.92
2018-11-22T20:12:04.800Z,25.52
2018-11-22T20:14:34.210Z,27.30
2018-11-22T20:17:03.477Z,27.55
2018-11-22T20:19:32.890Z,24.20
2018-11-22T20:22:02.130Z,25.40
2018-11-22T20:24:31.883Z,23.70
2018-11-22T20:27:02.038Z,26.87
2018-11-22T20:29:31.670Z,24.60
2018-11-22T20:32:00.488Z,25.08
2018-11-22T20:34:29.319Z,23.92
2018-11-22T20:36:59.848Z,23.75
2018-11-22T20:39:31.991Z,25.08
2018-11-22T20:42:07.460Z,22.77
2018-11-22T20:44:36.335Z,24.57
2018-11-22T20:47:05.229Z,23.02
2018-11-22T20:49:34.619Z,23.47
2018-11-22T20:52:04.209Z,24.90
2018-11-22T20:54:35.041Z,22.67
2018-11-22T20:57:05.631Z,22.98
2018-11-22T20:59:36.405Z,23.12
2018-11-22T21:02:06.356Z,26.57
2018-11-22T21:04:37.367Z,22.70
2018-11-22T21:07:07.313Z,22.95
2018-11-22T21:09:39.951Z,25.55
2018-11-22T21:12:08.643Z,22.30
2018-11-22T21:14:38.697Z,23.38
2018-11-22T21:17:11.344Z,23.25
2018-11-22T21:19:41.168Z,23.10
2018-11-22T21:22:10.136Z,25.43
2018-11-22T21:24:39.497Z,27.22
2018-11-22T21:27:10.312Z,21.37
2018-11-22T21:29:39.871Z,20.90
2018-11-22T21:32:10.756Z,25.23
2018-11-22T21:34:40.878Z,22.85
2018-11-22T21:37:10.198Z,23.30
2018-11-22T21:39:38.844Z,23.57
2018-11-22T21:42:12.047Z,23.65
2018-11-22T21:44:41.439Z,23.50
2018-11-22T21:47:12.744Z,25.55
2018-11-22T21:49:45.399Z,23.77
2018-11-22T21:52:14.158Z,24.87
2018-11-22T21:54:42.657Z,23.67
2018-11-22T21:57:12.040Z,23.65
2018-11-22T21:59:44.429Z,28.02
2018-11-22T22:02:16.468Z,25.52
2018-11-22T22:04:45.148Z,26.40
2018-11-22T22:07:13.467Z,23.32
2018-11-22T22:09:41.845Z,29.05
2018-11-22T22:12:15.849Z,24.43
2018-11-22T22:14:47.700Z,22.30
2018-11-22T22:17:17.026Z,24.65
2018-11-22T22:19:48.614Z,23.30
2018-11-22T22:22:18.952Z,23.83
2018-11-22T22:24:48.240Z,27.67
2018-11-22T22:27:16.616Z,26.33
2018-11-22T22:29:45.076Z,21.52
2018-11-22T22:32:18.972Z,30.55
2018-11-22T22:34:53.733Z,22.98
2018-11-22T22:37:22.559Z,25.35
2018-11-22T22:39:51.106Z,23.77
2018-11-22T22:42:19.595Z,21.77
2018-11-22T22:44:52.572Z,24.35
2018-11-22T22:47:22.337Z,27.62
2018-11-22T22:49:51.689Z,26.80
2018-11-22T22:52:24.222Z,30.65
2018-11-22T22:54:54.012Z,25.77
2018-11-22T22:57:22.428Z,28.10
2018-11-22T22:59:53.505Z,24.82
2018-11-22T23:02:24.719Z,25.10
2018-11-22T23:04:57.013Z,24.67
2018-11-22T23:07:26.270Z,26.93
2018-11-22T23:09:55.503Z,25.80
2018-11-22T23:12:26.307Z,25.55
2018-11-22T23:14:59.084Z,23.95
2018-11-22T23:17:27.558Z,23.80
2018-11-22T23:19:56.809Z,25.72
2018-11-22T23:22:28.030Z,24.82
2018-11-22T23:24:56.566Z,30.25
2018-11-22T23:27:27.952Z,24.52
2018-11-22T23:30:00.784Z,24.55
2018-11-22T23:32:29.381Z,22.85
2018-11-22T23:35:00.077Z,24.55
2018-11-22T23:37:30.816Z,23.98
2018-11-22T23:40:00.004Z,24.75
2018-11-22T23:42:29.844Z,24.75
2018-11-22T23:44:58.274Z,25.75
2018-11-22T23:47:27.477Z,30.43
2018-11-22T23:49:57.722Z,29.02
2018-11-22T23:52:26.619Z,24.95
2018-11-22T23:54:55.217Z,24.70
2018-11-22T23:57:24.033Z,23.12
2018-11-22T23:59:55.861Z,30.65
